Skip Navigation LinksHome page > Weather > Current weather Skip Navigation Links

Current Weather

The William B Hartsfield Atlanta Intl, Atlanta

For information only: do not use for flight planning or navigation.
Latest weather
Observation time Saturday, December 5, 2020 2:52 AM EST
Local time Saturday, December 5, 2020 3:08 AM EST
Flight conditions Visual Meteorological Conditions
Winds
Wind direction Northwest (310°)
Wind speed 12 mph
Visibility 10 mi.
Sky condition
Ceiling unlimited
Cloud layer few clouds 2,500 ft.
Temperature 39°F
Dewpoint 35°F
Altimeter 30.07 in.Hg
Derived measurements
Relative humidity 86%
Wind chill 32°F
Density altitude -387 ft.
Sea-level pressure 30.08 in.Hg
Remarks
System requires maintenance.
Automated weather observing station with precipitation discriminator.
METAR KATL 050752Z 31010KT 10SM FEW025 04/02 A3007 RMK AO2 SLP185 T00390017 $

Settings

Location code

InnerDrive.Weather 4.0.6770.0 Release CLR 4.0.30319.42000
Copyright ©2018 Inner Drive Technology. All rights reserved. Portions Copyright ©1986-2018 David Braverman.

Find weather

Site navigation


Skip Navigation Links

Place info

Page info

PayPal - The safer, easier way to pay online!

Return home.

Copyright ©2020 Inner Drive Technology. Purveyors of fine, hand-crafted computer software. Page printed 2020-12-05T08:08:32 UTC.